createdAt,value
2023-10-12T00:01:59.277Z,5.70
2023-10-12T00:04:27.349Z,4.97
2023-10-12T00:06:54.932Z,5.03
2023-10-12T00:09:27.088Z,4.60
2023-10-12T00:11:58.766Z,4.50
2023-10-12T00:14:31.378Z,4.90
2023-10-12T00:16:59.263Z,4.40
2023-10-12T00:19:27.036Z,5.40
2023-10-12T00:22:01.720Z,5.23
2023-10-12T00:24:29.239Z,4.23
2023-10-12T00:26:59.111Z,4.90
2023-10-12T00:29:29.165Z,5.93
2023-10-12T00:31:59.152Z,4.43
2023-10-12T00:34:28.815Z,4.17
2023-10-12T00:36:58.852Z,4.30
2023-10-12T00:39:44.867Z,4.40
2023-10-12T00:42:17.582Z,4.90
2023-10-12T00:44:48.636Z,4.50
2023-10-12T00:47:29.556Z,4.20
2023-10-12T00:49:57.213Z,4.20
2023-10-12T00:52:27.647Z,4.17
2023-10-12T00:54:59.814Z,3.97
2023-10-12T00:57:27.379Z,4.50
2023-10-12T00:59:56.572Z,4.20
2023-10-12T01:02:25.297Z,3.70
2023-10-12T01:04:54.534Z,3.90
2023-10-12T01:07:26.391Z,4.33
2023-10-12T01:10:04.582Z,4.10
2023-10-12T01:12:32.593Z,4.17
2023-10-12T01:15:07.054Z,4.10
2023-10-12T01:17:37.006Z,4.10
2023-10-12T01:20:12.876Z,4.67
2023-10-12T01:22:42.584Z,4.60
2023-10-12T01:25:20.770Z,5.20
2023-10-12T01:27:48.725Z,4.80
2023-10-12T01:30:20.835Z,4.60
2023-10-12T01:32:54.307Z,4.70
2023-10-12T01:35:27.849Z,5.00
2023-10-12T01:38:01.533Z,4.60
2023-10-12T01:40:43.291Z,5.00
2023-10-12T01:43:13.525Z,4.90
2023-10-12T01:45:43.960Z,5.30
2023-10-12T01:48:13.463Z,5.17
2023-10-12T01:50:41.464Z,5.00
2023-10-12T01:53:23.836Z,4.83
2023-10-12T01:55:53.018Z,4.80
2023-10-12T01:58:21.038Z,4.80
2023-10-12T02:00:52.786Z,5.67
2023-10-12T02:03:27.611Z,5.50
2023-10-12T02:06:00.741Z,5.10
2023-10-12T02:08:33.789Z,4.50
2023-10-12T02:11:08.038Z,4.57
2023-10-12T02:13:36.175Z,4.90
2023-10-12T02:16:04.088Z,3.83
2023-10-12T02:18:33.906Z,4.60
2023-10-12T02:21:08.611Z,4.80
2023-10-12T02:23:54.464Z,4.73
2023-10-12T02:26:33.530Z,4.43
2023-10-12T02:29:12.523Z,4.20
2023-10-12T02:31:40.985Z,4.43
2023-10-12T02:34:16.614Z,4.50
2023-10-12T02:36:47.233Z,4.60
2023-10-12T02:39:22.192Z,4.70
2023-10-12T02:41:54.464Z,4.20
2023-10-12T02:44:22.287Z,4.00
2023-10-12T02:47:02.357Z,3.57
2023-10-12T02:49:36.618Z,4.20
2023-10-12T02:52:07.121Z,4.00
2023-10-12T02:54:50.290Z,4.40
2023-10-12T02:57:20.014Z,3.90
2023-10-12T02:59:50.654Z,4.23
2023-10-12T03:02:33.416Z,3.83
2023-10-12T03:05:04.844Z,4.70
2023-10-12T03:07:32.779Z,4.40
2023-10-12T03:10:06.435Z,4.40
2023-10-12T03:12:36.247Z,4.50
2023-10-12T03:15:13.860Z,4.50
2023-10-12T03:17:46.263Z,5.40
2023-10-12T03:20:22.687Z,4.80
2023-10-12T03:22:53.688Z,4.77
2023-10-12T03:25:37.513Z,4.80
2023-10-12T03:28:13.603Z,5.20
2023-10-12T03:30:54.276Z,5.20
2023-10-12T03:33:29.023Z,5.13
2023-10-12T03:36:04.066Z,5.00
2023-10-12T03:38:34.751Z,5.00
2023-10-12T03:41:29.272Z,5.73
2023-10-12T03:44:05.235Z,5.50
2023-10-12T03:46:33.537Z,5.60
2023-10-12T03:49:10.783Z,5.50
2023-10-12T03:51:42.660Z,5.27
2023-10-12T03:54:20.140Z,5.90
2023-10-12T03:56:51.401Z,6.00
2023-10-12T03:59:28.752Z,5.80
2023-10-12T04:01:56.278Z,6.40
2023-10-12T04:04:30.727Z,6.17
2023-10-12T04:07:17.818Z,5.50
2023-10-12T04:09:45.552Z,5.93
2023-10-12T04:12:20.412Z,5.73
2023-10-12T04:14:52.104Z,5.90
2023-10-12T04:17:41.974Z,6.23
2023-10-12T04:20:23.168Z,6.20
2023-10-12T04:23:08.380Z,5.50
2023-10-12T04:25:47.434Z,6.20
2023-10-12T04:28:23.944Z,6.23
2023-10-12T04:31:12.972Z,6.00
2023-10-12T04:33:50.952Z,6.70
2023-10-12T04:36:34.360Z,6.20
2023-10-12T04:39:17.269Z,6.33
2023-10-12T04:41:56.712Z,7.23
2023-10-12T04:44:41.114Z,6.30
2023-10-12T04:47:08.317Z,6.23
2023-10-12T04:49:54.604Z,6.40
2023-10-12T04:52:33.667Z,6.93
2023-10-12T04:55:07.903Z,6.53
2023-10-12T04:57:39.238Z,6.77
2023-10-12T05:00:13.222Z,7.10
2023-10-12T05:02:55.710Z,6.93
2023-10-12T05:05:38.087Z,6.80
2023-10-12T05:08:06.466Z,6.70
2023-10-12T05:10:47.487Z,7.33
2023-10-12T05:13:23.030Z,6.77
2023-10-12T05:16:06.821Z,7.50
2023-10-12T05:18:34.961Z,6.90
2023-10-12T05:21:05.631Z,6.73
2023-10-12T05:23:33.104Z,6.73
2023-10-12T05:26:13.258Z,6.30
2023-10-12T05:28:54.662Z,7.00
2023-10-12T05:31:29.165Z,6.73
2023-10-12T05:34:19.937Z,6.70
2023-10-12T05:36:47.690Z,6.90
2023-10-12T05:39:15.281Z,7.57
2023-10-12T05:41:42.862Z,6.90
2023-10-12T05:44:16.952Z,7.30
2023-10-12T05:46:53.339Z,8.10
2023-10-12T05:49:24.244Z,7.80
2023-10-12T05:51:51.933Z,7.23
2023-10-12T05:54:21.930Z,7.43
2023-10-12T05:56:51.255Z,7.80
2023-10-12T05:59:19.367Z,8.17
2023-10-12T06:01:49.730Z,10.20
2023-10-12T06:04:17.856Z,10.47
2023-10-12T06:06:45.560Z,9.37
2023-10-12T06:09:22.032Z,8.10
2023-10-12T06:11:50.320Z,7.73
2023-10-12T06:14:21.404Z,7.63
2023-10-12T06:16:56.112Z,8.40
2023-10-12T06:19:27.102Z,8.97
2023-10-12T06:21:54.745Z,8.20
2023-10-12T06:24:34.393Z,7.43
2023-10-12T06:27:03.703Z,8.30
2023-10-12T06:29:33.409Z,8.17
2023-10-12T06:32:03.259Z,8.00
2023-10-12T06:34:31.009Z,8.17
2023-10-12T06:37:12.391Z,7.97
2023-10-12T06:39:56.580Z,8.20
2023-10-12T06:42:28.357Z,7.67
2023-10-12T06:44:55.177Z,7.57
2023-10-12T06:47:42.063Z,8.10
2023-10-12T06:50:16.189Z,7.60
2023-10-12T06:52:43.003Z,8.37
2023-10-12T06:55:21.987Z,8.17
2023-10-12T06:57:54.303Z,8.80
2023-10-12T07:00:35.845Z,8.03
2023-10-12T07:03:10.129Z,8.50
2023-10-12T07:05:39.199Z,7.37
2023-10-12T07:08:09.850Z,7.90
2023-10-12T07:10:37.336Z,7.43
2023-10-12T07:13:05.783Z,8.90
2023-10-12T07:15:41.569Z,8.20
2023-10-12T07:18:16.210Z,7.90
2023-10-12T07:20:45.825Z,7.40
2023-10-12T07:23:16.980Z,7.83
2023-10-12T07:25:46.633Z,8.10
2023-10-12T07:28:26.787Z,7.80
2023-10-12T07:31:12.120Z,7.47
2023-10-12T07:33:52.525Z,7.77
2023-10-12T07:36:20.017Z,7.50
2023-10-12T07:38:48.115Z,7.63
2023-10-12T07:41:16.020Z,7.07
2023-10-12T07:43:43.528Z,7.47
2023-10-12T07:46:15.759Z,7.37
2023-10-12T07:48:46.274Z,7.50
2023-10-12T07:51:26.210Z,6.77
2023-10-12T07:54:00.605Z,6.67
2023-10-12T07:56:33.377Z,7.10
2023-10-12T07:59:00.793Z,6.87
2023-10-12T08:01:40.382Z,6.50
2023-10-12T08:04:29.558Z,7.33
2023-10-12T08:06:57.310Z,7.47
2023-10-12T08:09:48.388Z,7.53
2023-10-12T08:12:28.005Z,7.00
2023-10-12T08:15:08.797Z,7.27
2023-10-12T08:17:36.256Z,7.17
2023-10-12T08:20:23.095Z,7.27
2023-10-12T08:22:55.857Z,7.23
2023-10-12T08:25:28.898Z,8.00
2023-10-12T08:28:07.414Z,7.73
2023-10-12T08:30:49.073Z,7.10
2023-10-12T08:33:20.319Z,7.30
2023-10-12T08:36:03.020Z,7.47
2023-10-12T08:38:37.685Z,7.87
2023-10-12T08:41:22.494Z,7.20
2023-10-12T08:43:53.753Z,8.17
2023-10-12T08:46:57.461Z,7.50
2023-10-12T08:49:42.209Z,7.10
2023-10-12T08:52:19.394Z,7.47
2023-10-12T08:54:52.197Z,7.10
2023-10-12T08:57:34.399Z,7.40
2023-10-12T09:00:24.464Z,7.90
2023-10-12T09:02:59.293Z,7.90
2023-10-12T09:05:29.373Z,7.00
2023-10-12T09:08:27.808Z,8.10
2023-10-12T09:10:56.664Z,7.97
2023-10-12T09:13:26.029Z,7.40
2023-10-12T09:15:56.095Z,6.90
2023-10-12T09:18:25.750Z,8.17
2023-10-12T09:21:06.739Z,6.97
2023-10-12T09:23:47.679Z,7.27
2023-10-12T09:26:16.994Z,7.93
2023-10-12T09:29:05.901Z,7.93
2023-10-12T09:31:52.810Z,7.10
2023-10-12T09:34:37.828Z,7.30
2023-10-12T09:37:07.324Z,7.37
2023-10-12T09:39:37.160Z,8.10
2023-10-12T09:42:15.021Z,7.87
2023-10-12T09:44:43.068Z,7.20
2023-10-12T09:47:16.663Z,7.60
2023-10-12T09:49:48.848Z,7.57
2023-10-12T09:52:18.698Z,8.07
2023-10-12T09:54:54.043Z,7.20
2023-10-12T09:57:24.939Z,7.27
2023-10-12T09:59:54.573Z,7.57
2023-10-12T10:02:32.258Z,7.10
2023-10-12T10:05:12.121Z,6.90
2023-10-12T10:07:43.311Z,7.30
2023-10-12T10:10:25.245Z,7.07
2023-10-12T10:12:53.173Z,7.27
2023-10-12T10:15:24.886Z,7.47
2023-10-12T10:17:54.718Z,7.07
2023-10-12T10:20:41.159Z,6.90
2023-10-12T10:23:15.567Z,7.10
2023-10-12T10:25:57.627Z,7.87
2023-10-12T10:28:29.247Z,6.90
2023-10-12T10:31:00.612Z,6.90
2023-10-12T10:33:29.931Z,6.60
2023-10-12T10:35:57.560Z,6.47
2023-10-12T10:38:26.761Z,6.03
2023-10-12T10:41:06.667Z,6.47
2023-10-12T10:43:35.201Z,6.30
2023-10-12T10:46:09.788Z,6.70
2023-10-12T10:49:07.476Z,6.37
2023-10-12T10:51:29.089Z,6.33
2023-10-12T10:54:00.103Z,7.10
2023-10-12T10:56:36.568Z,6.70
2023-10-12T10:59:06.171Z,7.50
2023-10-12T11:01:33.698Z,5.80
2023-10-12T11:04:02.495Z,7.10
2023-10-12T11:06:30.352Z,5.90
2023-10-12T11:09:07.066Z,7.50
2023-10-12T11:11:50.032Z,6.77
2023-10-12T11:14:19.146Z,6.97
2023-10-12T11:16:48.555Z,6.23
2023-10-12T11:19:19.796Z,6.37
2023-10-12T11:21:52.955Z,6.50
2023-10-12T11:24:23.190Z,6.47
2023-10-12T11:26:53.493Z,6.67
2023-10-12T11:29:21.174Z,6.60
2023-10-12T11:32:07.142Z,6.07
2023-10-12T11:34:35.190Z,6.00
2023-10-12T11:37:02.777Z,5.83
2023-10-12T11:39:41.521Z,6.37
2023-10-12T11:42:13.492Z,6.00
2023-10-12T11:44:44.617Z,5.97
2023-10-12T11:47:14.350Z,5.70
2023-10-12T11:49:56.679Z,5.90
2023-10-12T11:52:31.409Z,6.00
2023-10-12T11:55:07.887Z,6.40
2023-10-12T11:57:39.006Z,6.00
2023-10-12T12:00:22.143Z,6.00
2023-10-12T12:02:54.112Z,5.83
2023-10-12T12:05:22.567Z,6.07
2023-10-12T12:07:52.548Z,5.93
2023-10-12T12:10:26.243Z,5.77
2023-10-12T12:12:58.974Z,5.60
2023-10-12T12:15:26.620Z,6.10
2023-10-12T12:17:54.404Z,6.00
2023-10-12T12:20:23.174Z,5.93
2023-10-12T12:22:50.780Z,5.83
2023-10-12T12:25:22.101Z,5.80
2023-10-12T12:27:50.438Z,4.90
2023-10-12T12:30:44.871Z,5.87
2023-10-12T12:33:17.954Z,5.57
2023-10-12T12:35:47.224Z,5.50
2023-10-12T12:38:26.624Z,5.00
2023-10-12T12:40:54.070Z,4.93
2023-10-12T12:43:21.606Z,5.60
2023-10-12T12:45:50.494Z,5.73
2023-10-12T12:48:17.963Z,5.90
2023-10-12T12:50:45.401Z,5.53
2023-10-12T12:53:13.407Z,5.47
2023-10-12T12:55:41.441Z,5.70
2023-10-12T12:58:10.731Z,5.53
2023-10-12T13:00:38.577Z,5.27
2023-10-12T13:03:10.278Z,5.97
2023-10-12T13:05:37.795Z,5.57
2023-10-12T13:08:08.871Z,6.03
2023-10-12T13:10:36.382Z,5.73
2023-10-12T13:13:04.602Z,5.67
2023-10-12T13:15:32.512Z,6.20
2023-10-12T13:18:00.553Z,6.13
2023-10-12T13:20:31.150Z,5.90
2023-10-12T13:22:58.612Z,5.77
2023-10-12T13:25:27.274Z,6.00
2023-10-12T13:27:55.127Z,6.67
2023-10-12T13:30:22.872Z,6.30
2023-10-12T13:32:53.677Z,6.47
2023-10-12T13:35:29.997Z,6.77
2023-10-12T13:38:00.524Z,7.00
2023-10-12T13:40:31.298Z,6.60
2023-10-12T13:43:06.187Z,6.47
2023-10-12T13:45:33.640Z,7.70
2023-10-12T13:48:01.169Z,6.73
2023-10-12T13:50:28.617Z,7.30
2023-10-12T13:52:56.445Z,7.60
2023-10-12T13:55:27.819Z,7.27
2023-10-12T13:57:58.553Z,7.30
2023-10-12T14:00:27.289Z,7.10
2023-10-12T14:02:57.756Z,7.20
2023-10-12T14:05:28.627Z,7.37
2023-10-12T14:07:56.675Z,6.73
2023-10-12T14:10:25.690Z,6.07
2023-10-12T14:12:54.399Z,7.30
2023-10-12T14:15:23.063Z,6.90
2023-10-12T14:17:55.925Z,7.97
2023-10-12T14:20:27.734Z,6.00
2023-10-12T14:22:58.895Z,6.80
2023-10-12T14:25:29.979Z,6.10
2023-10-12T14:28:01.566Z,6.23
2023-10-12T14:30:30.617Z,6.00
2023-10-12T14:32:58.119Z,6.10
2023-10-12T14:35:28.223Z,5.80
2023-10-12T14:37:56.615Z,5.97
2023-10-12T14:40:30.086Z,6.03
2023-10-12T14:42:59.763Z,6.07
2023-10-12T14:45:28.137Z,6.10
2023-10-12T14:47:57.712Z,6.50
2023-10-12T14:50:25.513Z,6.80
2023-10-12T14:52:54.927Z,6.50
2023-10-12T14:55:25.459Z,6.70
2023-10-12T14:57:52.979Z,6.43
2023-10-12T15:00:24.748Z,6.70
2023-10-12T15:02:52.492Z,6.00
2023-10-12T15:05:20.381Z,6.40
2023-10-12T15:07:49.684Z,7.30
2023-10-12T15:10:19.801Z,6.43
2023-10-12T15:12:49.861Z,6.53
2023-10-12T15:15:20.037Z,6.10
2023-10-12T15:17:49.138Z,6.60
2023-10-12T15:20:19.334Z,5.70
2023-10-12T15:22:47.279Z,6.43
2023-10-12T15:25:16.363Z,6.50
2023-10-12T15:27:45.419Z,6.33
2023-10-12T15:30:13.292Z,5.90
2023-10-12T15:32:43.344Z,6.13
2023-10-12T15:35:13.108Z,6.23
2023-10-12T15:37:46.421Z,5.90
2023-10-12T15:40:18.782Z,6.17
2023-10-12T15:42:47.865Z,6.30
2023-10-12T15:45:16.366Z,6.60
2023-10-12T15:47:46.825Z,6.00
2023-10-12T15:50:16.729Z,5.90
2023-10-12T15:52:45.034Z,6.20
2023-10-12T15:55:14.012Z,6.63
2023-10-12T15:57:43.642Z,5.90
2023-10-12T16:00:20.340Z,6.70
2023-10-12T16:02:47.944Z,14.40
2023-10-12T16:05:17.517Z,9.30
2023-10-12T16:07:44.970Z,6.93
2023-10-12T16:10:12.931Z,6.83
2023-10-12T16:12:40.398Z,6.63
2023-10-12T16:15:09.982Z,7.33
2023-10-12T16:17:37.958Z,7.60
2023-10-12T16:20:06.883Z,7.57
2023-10-12T16:22:36.721Z,8.07
2023-10-12T16:25:08.174Z,8.77
2023-10-12T16:27:36.597Z,8.23
2023-10-12T16:30:05.481Z,7.60
2023-10-12T16:32:33.023Z,7.50
2023-10-12T16:35:00.896Z,7.10
2023-10-12T16:37:28.438Z,7.30
2023-10-12T16:39:57.316Z,6.60
2023-10-12T16:42:24.774Z,6.77
2023-10-12T16:44:52.288Z,7.57
2023-10-12T16:47:19.710Z,10.20
2023-10-12T16:49:47.125Z,11.40
2023-10-12T16:52:14.643Z,10.13
2023-10-12T16:54:45.597Z,9.13
2023-10-12T16:57:14.660Z,8.80
2023-10-12T16:59:42.306Z,8.10
2023-10-12T17:02:12.021Z,7.93
2023-10-12T17:04:41.982Z,9.63
2023-10-12T17:07:12.386Z,8.60
2023-10-12T17:09:40.256Z,7.40
2023-10-12T17:12:07.970Z,6.67
2023-10-12T17:14:38.125Z,7.30
2023-10-12T17:17:05.658Z,6.80
2023-10-12T17:19:33.990Z,7.10
2023-10-12T17:22:01.687Z,7.03
2023-10-12T17:24:30.036Z,7.13
2023-10-12T17:26:57.487Z,5.80
2023-10-12T17:29:25.054Z,6.20
2023-10-12T17:31:53.976Z,6.50
2023-10-12T17:34:21.666Z,6.57
2023-10-12T17:36:49.522Z,6.03
2023-10-12T17:39:19.940Z,5.70
2023-10-12T17:41:48.673Z,6.90
2023-10-12T17:44:17.883Z,6.83
2023-10-12T17:46:46.327Z,6.40
2023-10-12T17:49:15.878Z,6.30
2023-10-12T17:51:45.168Z,6.40
2023-10-12T17:54:13.330Z,6.47
2023-10-12T17:56:41.258Z,6.40
2023-10-12T17:59:09.013Z,8.20
2023-10-12T18:01:38.218Z,8.60
2023-10-12T18:04:09.636Z,8.20
2023-10-12T18:06:38.573Z,7.23
2023-10-12T18:09:06.335Z,7.87
2023-10-12T18:11:34.432Z,7.13
2023-10-12T18:14:02.004Z,6.27
2023-10-12T18:16:30.372Z,6.00
2023-10-12T18:19:01.970Z,6.17
2023-10-12T18:21:29.660Z,6.30
2023-10-12T18:24:02.382Z,6.60
2023-10-12T18:26:30.531Z,6.67
2023-10-12T18:28:58.240Z,6.83
2023-10-12T18:31:26.750Z,7.70
2023-10-12T18:33:54.303Z,7.97
2023-10-12T18:36:22.544Z,6.70
2023-10-12T18:38:50.078Z,7.33
2023-10-12T18:41:18.962Z,6.73
2023-10-12T18:43:49.573Z,6.50
2023-10-12T18:46:18.535Z,6.63
2023-10-12T18:48:46.164Z,6.50
2023-10-12T18:51:15.680Z,6.70
2023-10-12T18:53:43.314Z,6.70
2023-10-12T18:56:11.398Z,7.00
2023-10-12T18:58:41.050Z,6.90
2023-10-12T19:01:10.280Z,7.00
2023-10-12T19:03:39.223Z,7.50
2023-10-12T19:06:08.090Z,8.90
2023-10-12T19:08:35.562Z,8.93
2023-10-12T19:11:03.873Z,8.10
2023-10-12T19:13:31.490Z,7.90
2023-10-12T19:16:00.325Z,8.00
2023-10-12T19:18:31.262Z,7.53
2023-10-12T19:20:59.228Z,7.90
2023-10-12T19:23:26.826Z,6.87
2023-10-12T19:25:56.626Z,7.50
2023-10-12T19:28:25.177Z,7.33
2023-10-12T19:30:53.413Z,8.00
2023-10-12T19:33:22.497Z,8.20
2023-10-12T19:35:50.035Z,7.50
2023-10-12T19:38:17.782Z,7.17
2023-10-12T19:40:45.314Z,7.10
2023-10-12T19:43:13.804Z,7.20
2023-10-12T19:45:42.307Z,7.13
2023-10-12T19:48:09.978Z,7.50
2023-10-12T19:50:38.834Z,7.33
2023-10-12T19:53:07.523Z,7.63
2023-10-12T19:55:35.724Z,7.80
2023-10-12T19:58:03.731Z,7.50
2023-10-12T20:00:37.188Z,7.37
2023-10-12T20:03:24.773Z,7.60
2023-10-12T20:06:01.117Z,7.23
2023-10-12T20:08:28.561Z,7.40
2023-10-12T20:10:56.190Z,7.77
2023-10-12T20:13:23.716Z,7.57
2023-10-12T20:15:52.804Z,7.90
2023-10-12T20:18:20.945Z,7.90
2023-10-12T20:20:48.716Z,7.80
2023-10-12T20:23:19.820Z,7.40
2023-10-12T20:25:48.669Z,7.27
2023-10-12T20:28:17.469Z,7.57
2023-10-12T20:30:46.709Z,7.23
2023-10-12T20:33:15.373Z,7.60
2023-10-12T20:35:46.732Z,7.87
2023-10-12T20:38:14.795Z,6.80
2023-10-12T20:40:45.125Z,6.77
2023-10-12T20:43:14.081Z,7.23
2023-10-12T20:45:42.230Z,6.97
2023-10-12T20:48:10.722Z,6.97
2023-10-12T20:50:39.702Z,6.90
2023-10-12T20:53:10.173Z,7.27
2023-10-12T20:55:37.759Z,6.73
2023-10-12T20:58:15.435Z,7.17
2023-10-12T21:00:44.362Z,6.40
2023-10-12T21:03:12.661Z,6.40
2023-10-12T21:05:40.598Z,6.60
2023-10-12T21:08:10.945Z,7.00
2023-10-12T21:10:50.678Z,7.17
2023-10-12T21:13:20.990Z,6.47
2023-10-12T21:15:54.916Z,6.83
2023-10-12T21:18:34.583Z,7.80
2023-10-12T21:21:19.447Z,7.47
2023-10-12T21:23:49.526Z,6.93
2023-10-12T21:26:21.673Z,7.57
2023-10-12T21:28:55.386Z,6.90
2023-10-12T21:31:28.522Z,6.97
2023-10-12T21:33:59.799Z,7.30
2023-10-12T21:36:28.117Z,7.23
2023-10-12T21:38:57.219Z,7.00
2023-10-12T21:41:33.102Z,7.07
2023-10-12T21:44:06.025Z,7.20
2023-10-12T21:46:34.028Z,7.60
2023-10-12T21:49:02.274Z,7.77
2023-10-12T21:51:30.092Z,7.97
2023-10-12T21:53:58.949Z,7.20
2023-10-12T21:56:26.760Z,7.10
2023-10-12T21:58:54.251Z,7.07
2023-10-12T22:01:31.098Z,7.30
2023-10-12T22:03:59.834Z,6.57
2023-10-12T22:06:27.957Z,7.73
2023-10-12T22:08:57.806Z,7.77
2023-10-12T22:11:34.709Z,7.00
2023-10-12T22:14:16.785Z,6.67
2023-10-12T22:16:51.202Z,6.83
2023-10-12T22:19:21.495Z,6.57
2023-10-12T22:21:50.090Z,6.77
2023-10-12T22:24:17.960Z,7.17
2023-10-12T22:26:45.639Z,6.97
2023-10-12T22:29:14.463Z,7.47
2023-10-12T22:31:42.271Z,6.70
2023-10-12T22:34:15.861Z,7.00
2023-10-12T22:36:47.030Z,7.20
2023-10-12T22:39:17.179Z,6.53
2023-10-12T22:41:44.685Z,6.90
2023-10-12T22:44:12.139Z,7.40
2023-10-12T22:46:39.630Z,6.10
2023-10-12T22:49:07.793Z,6.43
2023-10-12T22:51:38.192Z,6.83
2023-10-12T22:54:06.208Z,7.30
2023-10-12T22:56:33.806Z,6.57
2023-10-12T22:59:02.139Z,7.17
2023-10-12T23:01:30.152Z,7.33
2023-10-12T23:03:57.691Z,7.20
2023-10-12T23:06:25.177Z,7.47
2023-10-12T23:08:54.095Z,7.80
2023-10-12T23:11:22.187Z,7.00
2023-10-12T23:13:49.709Z,6.90
2023-10-12T23:16:26.496Z,7.07
2023-10-12T23:18:56.415Z,7.23
2023-10-12T23:21:30.627Z,7.77
2023-10-12T23:24:00.553Z,7.13
2023-10-12T23:26:31.245Z,7.87
2023-10-12T23:28:59.018Z,7.30
2023-10-12T23:31:28.357Z,6.97
2023-10-12T23:33:57.184Z,7.47
2023-10-12T23:36:29.048Z,8.03
2023-10-12T23:39:10.768Z,7.47
2023-10-12T23:41:45.258Z,7.83
2023-10-12T23:44:42.385Z,8.07
2023-10-12T23:47:25.126Z,7.30
2023-10-12T23:50:06.971Z,7.50
2023-10-12T23:52:53.225Z,7.60
2023-10-12T23:55:30.460Z,7.80
2023-10-12T23:58:02.376Z,7.80
